Аэропорт: Борисполь. Киев

ICAO: UKBB

METAR:
2021-01-19 12:00:00
UKBB 191200Z 26003MPS 230V290 CAVOK M14/M18 Q1018 R36R/811050 NOSIG
METAR:
2021-01-19 11:02:00
TAF UKBB 191102Z 1912/2012 26003MPS 9999 BKN010 TEMPO 1912/1918 2100 -SN BR BKN006 BECMG 1916/1918 21003MPS TEMPO 1918/2006 1000 BR BKN004 BECMG 2000/2002 17003G08MPS